Terminal Aerodrome Forecast
Issued by NWS

Home | Current Version | Previous Version | Text Only | Print | Product List | Glossary On
Versions: 1 2 3 4 5 6 7 8 9 10 11 12 13
084
FTUS46 KMTR 252333
TAFOAK
TAF
KOAK 252333Z 2600/2706 27017KT P6SM SCT025 BKN070
     FM260300 27012KT P6SM FEW020 FEW025 BKN070
     FM260500 28011KT P6SM FEW015 SCT025 BKN050
     FM261000 26009KT P6SM FEW012 SCT020 BKN025
     FM261500 25008KT P6SM VCSH SCT015 OVC025
     FM262100 27011KT P6SM SCT020 BKN050
     FM270400 28015KT P6SM SCT030=

USA.gov is the U.S. government's official web portal to all federal, state and local government web resources and services.